createdAt,value
2018-03-14T00:02:16.218Z,28.70
2018-03-14T00:04:43.872Z,26.67
2018-03-14T00:07:11.547Z,23.90
2018-03-14T00:09:39.087Z,24.17
2018-03-14T00:12:06.625Z,23.53
2018-03-14T00:14:34.320Z,22.17
2018-03-14T00:17:01.949Z,21.90
2018-03-14T00:19:29.481Z,24.57
2018-03-14T00:21:57.034Z,23.93
2018-03-14T00:24:24.990Z,31.37
2018-03-14T00:26:52.525Z,38.87
2018-03-14T00:29:20.130Z,45.60
2018-03-14T00:31:47.660Z,19.47
2018-03-14T00:34:15.430Z,24.57
2018-03-14T00:36:43.367Z,26.80
2018-03-14T00:39:10.905Z,20.27
2018-03-14T00:41:38.564Z,18.40
2018-03-14T00:44:06.148Z,19.83
2018-03-14T00:46:33.719Z,18.17
2018-03-14T00:49:01.330Z,20.27
2018-03-14T00:51:28.915Z,19.37
2018-03-14T00:53:56.455Z,25.60
2018-03-14T00:56:23.999Z,26.17
2018-03-14T00:58:52.432Z,24.23
2018-03-14T01:01:20.037Z,20.37
2018-03-14T01:03:47.578Z,25.67
2018-03-14T01:06:15.418Z,19.13
2018-03-14T01:08:42.949Z,17.50
2018-03-14T01:11:10.481Z,19.73
2018-03-14T01:13:38.063Z,19.07
2018-03-14T01:16:05.595Z,22.90
2018-03-14T01:18:33.134Z,24.70
2018-03-14T01:21:00.706Z,37.03
2018-03-14T01:23:28.249Z,20.93
2018-03-14T01:25:55.889Z,19.00
2018-03-14T01:28:23.464Z,17.73
2018-03-14T01:30:50.994Z,13.97
2018-03-14T01:33:18.534Z,42.03
2018-03-14T01:35:46.117Z,57.13
2018-03-14T01:38:13.727Z,38.60
2018-03-14T01:40:41.328Z,22.53
2018-03-14T01:43:08.906Z,17.50
2018-03-14T01:45:36.440Z,23.60
2018-03-14T01:48:03.966Z,15.83
2018-03-14T01:50:31.537Z,15.17
2018-03-14T01:53:10.954Z,14.47
2018-03-14T01:55:38.581Z,13.03
2018-03-14T01:58:06.277Z,11.33
2018-03-14T02:00:33.830Z,12.13
2018-03-14T02:03:02.246Z,10.50
2018-03-14T02:05:29.774Z,13.37
2018-03-14T02:07:58.390Z,16.27
2018-03-14T02:10:25.973Z,14.57
2018-03-14T02:12:53.518Z,12.30
2018-03-14T02:15:21.242Z,12.70
2018-03-14T02:17:48.833Z,11.53
2018-03-14T02:20:16.710Z,11.23
2018-03-14T02:22:44.393Z,14.17
2018-03-14T02:25:12.233Z,16.37
2018-03-14T02:27:39.776Z,15.17
2018-03-14T02:30:07.326Z,14.10
2018-03-14T02:32:34.898Z,14.70
2018-03-14T02:35:02.478Z,15.57
2018-03-14T02:37:30.129Z,12.20
2018-03-14T02:39:57.689Z,11.67
2018-03-14T02:42:25.231Z,12.97
2018-03-14T02:44:52.796Z,11.77
2018-03-14T02:47:20.566Z,13.67
2018-03-14T02:49:48.119Z,15.40
2018-03-14T02:52:15.642Z,15.53
2018-03-14T02:54:43.325Z,14.30
2018-03-14T02:57:11.632Z,21.70
2018-03-14T02:59:39.293Z,17.27
2018-03-14T03:02:06.843Z,13.13
2018-03-14T03:04:34.356Z,10.60
2018-03-14T03:07:01.880Z,14.53
2018-03-14T03:09:29.507Z,14.20
2018-03-14T03:11:57.017Z,17.43
2018-03-14T03:14:24.533Z,28.10
2018-03-14T03:16:52.341Z,19.63
2018-03-14T03:19:19.861Z,19.77
2018-03-14T03:21:47.369Z,17.77
2018-03-14T03:24:14.917Z,17.07
2018-03-14T03:26:42.601Z,14.67
2018-03-14T03:29:10.250Z,14.70
2018-03-14T03:31:38.558Z,15.63
2018-03-14T03:34:06.082Z,17.10
2018-03-14T03:36:33.728Z,16.77
2018-03-14T03:39:02.243Z,16.77
2018-03-14T03:41:29.922Z,15.23
2018-03-14T03:43:57.445Z,15.63
2018-03-14T03:46:25.786Z,13.60
2018-03-14T03:48:54.166Z,15.83
2018-03-14T03:51:21.690Z,12.87
2018-03-14T03:53:49.234Z,12.77
2018-03-14T03:56:16.755Z,12.53
2018-03-14T03:58:44.270Z,13.57
2018-03-14T04:01:11.897Z,13.03
2018-03-14T04:03:40.179Z,12.23
2018-03-14T04:06:07.706Z,53.03
2018-03-14T04:08:35.248Z,14.23
2018-03-14T04:11:03.040Z,20.83
2018-03-14T04:13:30.554Z,19.17
2018-03-14T04:15:58.143Z,17.50
2018-03-14T04:18:25.652Z,18.13
2018-03-14T04:20:53.540Z,19.50
2018-03-14T04:23:21.165Z,22.30
2018-03-14T04:25:49.626Z,24.13
2018-03-14T04:28:17.285Z,28.07
2018-03-14T04:30:44.855Z,27.57
2018-03-14T04:33:12.366Z,29.07
2018-03-14T04:35:40.881Z,33.70
2018-03-14T04:38:08.430Z,31.00
2018-03-14T04:40:36.814Z,35.63
2018-03-14T04:43:04.717Z,34.90
2018-03-14T04:45:32.297Z,35.03
2018-03-14T04:47:59.811Z,39.20
2018-03-14T04:50:27.331Z,43.97
2018-03-14T04:52:54.877Z,41.13
2018-03-14T04:55:22.400Z,34.07
2018-03-14T04:57:50.074Z,29.37
2018-03-14T05:00:17.624Z,27.73
2018-03-14T05:02:45.147Z,35.07
2018-03-14T05:05:12.658Z,28.50
2018-03-14T05:07:40.213Z,23.13
2018-03-14T05:10:07.731Z,19.30
2018-03-14T05:12:35.377Z,20.60
2018-03-14T05:15:02.923Z,24.10
2018-03-14T05:17:30.608Z,37.07
2018-03-14T05:19:58.345Z,33.60
2018-03-14T05:22:26.164Z,30.30
2018-03-14T05:24:53.676Z,36.67
2018-03-14T05:27:21.199Z,32.80
2018-03-14T05:29:48.884Z,34.27
2018-03-14T05:32:16.572Z,31.73
2018-03-14T05:34:44.982Z,41.43
2018-03-14T05:37:12.537Z,43.83
2018-03-14T05:39:40.105Z,40.83
2018-03-14T05:42:07.632Z,51.33
2018-03-14T05:44:35.195Z,45.13
2018-03-14T05:47:02.877Z,51.40
2018-03-14T05:49:30.395Z,38.43
2018-03-14T05:51:58.808Z,39.07
2018-03-14T05:54:26.673Z,41.93
2018-03-14T05:56:54.199Z,65.70
2018-03-14T05:59:23.022Z,48.90
2018-03-14T06:01:50.837Z,40.97
2018-03-14T06:04:18.357Z,44.67
2018-03-14T06:06:45.981Z,43.53
2018-03-14T06:09:14.001Z,52.87
2018-03-14T06:11:41.746Z,50.00
2018-03-14T06:14:09.471Z,51.33
2018-03-14T06:16:37.237Z,48.80
2018-03-14T06:19:04.874Z,48.47
2018-03-14T06:21:32.537Z,50.67
2018-03-14T06:24:00.063Z,47.73
2018-03-14T06:26:27.578Z,50.67
2018-03-14T06:28:55.189Z,57.37
2018-03-14T06:31:22.763Z,71.23
2018-03-14T06:33:50.484Z,90.70
2018-03-14T06:36:18.342Z,100.50
2018-03-14T06:38:46.415Z,90.27
2018-03-14T06:41:13.940Z,98.07
2018-03-14T06:43:42.266Z,100.80
2018-03-14T06:46:09.828Z,95.40
2018-03-14T06:48:37.683Z,74.97
2018-03-14T06:51:05.241Z,66.53
2018-03-14T06:53:33.195Z,58.80
2018-03-14T06:56:01.040Z,58.50
2018-03-14T06:58:40.382Z,53.47
2018-03-14T07:01:19.643Z,52.93
2018-03-14T07:06:48.705Z,82.03
2018-03-14T07:09:17.329Z,92.87
2018-03-14T07:11:44.982Z,181.07
2018-03-14T07:14:12.642Z,122.63
2018-03-14T07:16:40.227Z,94.33
2018-03-14T07:19:07.773Z,87.80
2018-03-14T07:21:35.328Z,91.77
2018-03-14T07:24:03.099Z,85.77
2018-03-14T07:26:30.629Z,97.20
2018-03-14T07:28:58.398Z,87.00
2018-03-14T07:31:26.064Z,74.07
2018-03-14T07:33:53.629Z,72.67
2018-03-14T07:36:21.207Z,77.17
2018-03-14T07:38:48.957Z,85.10
2018-03-14T07:41:16.721Z,92.73
2018-03-14T07:43:44.278Z,106.03
2018-03-14T07:46:11.983Z,117.80
2018-03-14T07:48:39.557Z,117.73
2018-03-14T07:51:07.572Z,113.47
2018-03-14T07:53:35.434Z,99.97
2018-03-14T07:56:02.998Z,94.43
2018-03-14T07:58:30.785Z,118.00
2018-03-14T08:00:58.621Z,122.30
2018-03-14T08:03:26.145Z,116.50
2018-03-14T08:05:53.670Z,98.43
2018-03-14T08:08:21.281Z,74.50
2018-03-14T08:10:49.050Z,66.33
2018-03-14T08:13:16.583Z,67.40
2018-03-14T08:15:44.391Z,41.97
2018-03-14T08:18:12.156Z,31.37
2018-03-14T08:20:39.669Z,30.57
2018-03-14T08:23:07.385Z,29.23
2018-03-14T08:25:35.102Z,17.13
2018-03-14T08:28:03.084Z,19.40
2018-03-14T08:30:30.650Z,15.87
2018-03-14T08:32:58.208Z,6.20
2018-03-14T08:35:26.761Z,8.77
2018-03-14T08:37:54.642Z,5.90
2018-03-14T08:40:22.298Z,5.33
2018-03-14T08:42:50.021Z,5.80
2018-03-14T08:45:18.540Z,4.90
2018-03-14T08:47:46.177Z,3.67
2018-03-14T08:50:13.779Z,5.10
2018-03-14T08:52:41.541Z,4.27
2018-03-14T08:55:09.058Z,3.00
2018-03-14T08:57:37.354Z,2.80
2018-03-14T09:00:04.913Z,2.47
2018-03-14T09:02:32.427Z,3.00
2018-03-14T09:05:00.302Z,3.20
2018-03-14T09:07:28.630Z,3.07
2018-03-14T09:09:56.168Z,2.90
2018-03-14T09:12:23.843Z,3.10
2018-03-14T09:14:51.454Z,3.93
2018-03-14T09:17:19.735Z,5.53
2018-03-14T09:19:47.259Z,3.50
2018-03-14T09:22:14.803Z,5.40
2018-03-14T09:24:42.337Z,5.50
2018-03-14T09:27:09.966Z,5.23
2018-03-14T09:29:37.568Z,6.73
2018-03-14T09:32:05.349Z,7.90
2018-03-14T09:34:33.015Z,10.83
2018-03-14T09:37:00.854Z,26.17
2018-03-14T09:39:28.402Z,45.67
2018-03-14T09:41:55.985Z,14.97
2018-03-14T09:44:23.858Z,12.37
2018-03-14T09:46:51.422Z,8.00
2018-03-14T09:49:19.173Z,10.87
2018-03-14T09:51:47.063Z,10.30
2018-03-14T09:54:14.913Z,7.53
2018-03-14T09:56:42.549Z,5.87
2018-03-14T09:59:10.296Z,5.13
2018-03-14T10:01:37.910Z,7.43
2018-03-14T10:04:05.539Z,5.97
2018-03-14T10:06:33.122Z,5.97
2018-03-14T10:09:00.672Z,6.80
2018-03-14T10:11:28.224Z,5.80
2018-03-14T10:13:55.817Z,5.67
2018-03-14T10:16:24.139Z,6.83
2018-03-14T10:18:51.883Z,6.30
2018-03-14T10:21:19.587Z,6.40
2018-03-14T10:23:47.173Z,6.40
2018-03-14T10:26:15.714Z,8.20
2018-03-14T10:28:43.499Z,8.53
2018-03-14T10:31:11.087Z,8.20
2018-03-14T10:33:39.527Z,8.43
2018-03-14T10:36:07.283Z,8.83
2018-03-14T10:38:35.080Z,8.67
2018-03-14T10:41:03.190Z,9.87
2018-03-14T10:43:31.631Z,10.30
2018-03-14T10:45:59.192Z,14.30
2018-03-14T10:48:26.934Z,10.50
2018-03-14T10:50:54.614Z,9.47
2018-03-14T10:53:22.248Z,9.13
2018-03-14T10:55:49.815Z,14.83
2018-03-14T10:58:17.630Z,12.67
2018-03-14T11:00:50.720Z,9.37
2018-03-14T11:03:18.783Z,10.83
2018-03-14T11:05:46.652Z,9.67
2018-03-14T11:08:14.207Z,10.27
2018-03-14T11:10:42.558Z,10.37
2018-03-14T11:13:10.119Z,10.10
2018-03-14T11:15:37.784Z,10.23
2018-03-14T11:18:06.145Z,10.73
2018-03-14T11:20:34.026Z,10.03
2018-03-14T11:23:01.849Z,12.17
2018-03-14T11:25:29.552Z,23.00
2018-03-14T11:27:57.107Z,11.40
2018-03-14T11:30:25.015Z,9.93
2018-03-14T11:32:52.745Z,13.20
2018-03-14T11:35:20.308Z,12.33
2018-03-14T11:37:47.874Z,14.13
2018-03-14T11:40:23.197Z,12.80
2018-03-14T11:42:50.745Z,14.80
2018-03-14T11:45:18.299Z,11.40
2018-03-14T11:47:46.319Z,12.57
2018-03-14T11:50:14.211Z,12.63
2018-03-14T11:52:41.893Z,11.77
2018-03-14T11:55:10.049Z,11.00
2018-03-14T11:57:37.613Z,12.83
2018-03-14T12:00:05.465Z,13.43
2018-03-14T12:02:33.289Z,22.43
2018-03-14T12:05:01.702Z,18.67
2018-03-14T12:07:29.396Z,12.53
2018-03-14T12:09:56.985Z,12.33
2018-03-14T12:12:24.564Z,8.80
2018-03-14T12:14:52.155Z,12.13
2018-03-14T12:17:20.035Z,11.70
2018-03-14T12:19:47.618Z,11.33
2018-03-14T12:22:20.919Z,9.00
2018-03-14T12:24:49.252Z,7.67
2018-03-14T12:27:17.215Z,4.60
2018-03-14T12:29:44.796Z,5.47
2018-03-14T12:32:12.358Z,7.20
2018-03-14T12:34:40.063Z,8.20
2018-03-14T12:37:07.731Z,7.90
2018-03-14T12:39:35.414Z,8.97
2018-03-14T12:42:02.963Z,16.30
2018-03-14T12:44:30.924Z,10.07
2018-03-14T12:46:58.743Z,8.67
2018-03-14T12:49:26.458Z,8.73
2018-03-14T12:51:54.044Z,7.77
2018-03-14T12:54:22.131Z,14.73
2018-03-14T12:56:49.688Z,16.03
2018-03-14T12:59:18.286Z,13.53
2018-03-14T13:01:45.946Z,16.97
2018-03-14T13:04:13.552Z,12.23
2018-03-14T13:06:41.298Z,18.53
2018-03-14T13:09:09.332Z,14.73
2018-03-14T13:11:37.034Z,10.17
2018-03-14T13:14:05.104Z,30.17
2018-03-14T13:16:32.706Z,32.80
2018-03-14T13:19:00.262Z,28.37
2018-03-14T13:21:28.076Z,28.30
2018-03-14T13:23:55.838Z,43.67
2018-03-14T13:26:23.487Z,19.43
2018-03-14T13:28:51.435Z,31.60
2018-03-14T13:31:18.998Z,52.93
2018-03-14T13:33:46.567Z,28.70
2018-03-14T13:36:14.928Z,12.83
2018-03-14T13:38:42.705Z,14.67
2018-03-14T13:41:11.140Z,26.60
2018-03-14T13:43:38.942Z,23.50
2018-03-14T13:46:06.751Z,26.17
2018-03-14T13:48:34.313Z,8.13
2018-03-14T13:51:01.920Z,6.83
2018-03-14T13:53:29.527Z,7.70
2018-03-14T13:55:57.203Z,16.73
2018-03-14T13:58:24.880Z,8.70
2018-03-14T14:00:52.520Z,9.57
2018-03-14T14:03:20.290Z,5.93
2018-03-14T14:05:48.283Z,10.60
2018-03-14T14:08:15.850Z,10.73
2018-03-14T14:10:43.395Z,9.13
2018-03-14T14:13:11.202Z,9.87
2018-03-14T14:15:39.896Z,46.53
2018-03-14T14:18:07.566Z,51.97
2018-03-14T14:20:35.519Z,23.10
2018-03-14T14:23:03.226Z,21.40
2018-03-14T14:25:31.282Z,15.47
2018-03-14T14:27:59.227Z,26.10
2018-03-14T14:30:26.817Z,36.03
2018-03-14T14:32:54.387Z,98.87
2018-03-14T14:35:22.745Z,34.93
2018-03-14T14:37:50.576Z,26.77
2018-03-14T14:40:18.764Z,22.20
2018-03-14T14:42:46.472Z,34.90
2018-03-14T14:45:14.026Z,40.37
2018-03-14T14:47:41.585Z,62.63
2018-03-14T14:50:09.204Z,214.97
2018-03-14T14:52:36.756Z,41.77
2018-03-14T14:55:04.512Z,116.57
2018-03-14T14:57:32.173Z,55.83
2018-03-14T14:59:59.733Z,40.80
2018-03-14T15:02:27.291Z,51.17
2018-03-14T15:04:55.024Z,52.67
2018-03-14T15:07:22.790Z,59.73
2018-03-14T15:09:51.128Z,60.80
2018-03-14T15:12:18.719Z,75.23
2018-03-14T15:14:46.400Z,91.80
2018-03-14T15:17:14.745Z,60.00
2018-03-14T15:19:43.366Z,27.57
2018-03-14T15:22:10.941Z,33.70
2018-03-14T15:24:38.621Z,33.23
2018-03-14T15:27:06.327Z,114.00
2018-03-14T15:29:33.953Z,63.67
2018-03-14T15:32:01.558Z,62.50
2018-03-14T15:34:29.447Z,60.03
2018-03-14T15:36:57.017Z,64.73
2018-03-14T15:39:24.821Z,61.73
2018-03-14T15:41:52.422Z,39.63
2018-03-14T15:44:20.362Z,47.07
2018-03-14T15:46:48.424Z,55.70
2018-03-14T15:49:16.010Z,32.10
2018-03-14T15:51:43.804Z,37.10
2018-03-14T15:54:12.054Z,33.63
2018-03-14T15:56:39.666Z,39.93
2018-03-14T15:59:08.421Z,32.10
2018-03-14T16:01:36.109Z,25.83
2018-03-14T16:04:04.018Z,42.63
2018-03-14T16:06:31.764Z,32.30
2018-03-14T16:08:59.847Z,53.87
2018-03-14T16:11:27.515Z,47.60
2018-03-14T16:13:55.527Z,32.40
2018-03-14T16:16:23.323Z,60.20
2018-03-14T16:18:51.252Z,39.47
2018-03-14T16:21:19.053Z,43.03
2018-03-14T16:23:47.430Z,36.00
2018-03-14T16:26:16.036Z,31.43
2018-03-14T16:28:43.626Z,120.63
2018-03-14T16:31:11.401Z,65.30
2018-03-14T16:33:39.139Z,92.17
2018-03-14T16:36:07.009Z,87.60
2018-03-14T16:38:34.819Z,39.57
2018-03-14T16:41:02.862Z,52.87
2018-03-14T16:43:30.733Z,141.87
2018-03-14T16:45:58.797Z,87.17
2018-03-14T16:48:27.072Z,116.23
2018-03-14T16:50:54.772Z,94.40
2018-03-14T16:53:22.803Z,38.30
2018-03-14T16:55:50.668Z,73.27
2018-03-14T16:58:18.284Z,24.13
2018-03-14T17:00:46.194Z,21.67
2018-03-14T17:03:14.682Z,27.40
2018-03-14T17:05:42.663Z,45.90
2018-03-14T17:08:10.836Z,47.00
2018-03-14T17:10:38.654Z,53.23
2018-03-14T17:13:06.243Z,48.27
2018-03-14T17:15:34.242Z,44.10
2018-03-14T17:18:02.277Z,31.07
2018-03-14T17:20:30.222Z,38.97
2018-03-14T17:22:57.803Z,39.17
2018-03-14T17:25:25.880Z,122.07
2018-03-14T17:27:53.722Z,152.97
2018-03-14T17:30:21.604Z,114.33
2018-03-14T17:32:49.288Z,73.93
2018-03-14T17:35:17.385Z,34.17
2018-03-14T17:37:46.226Z,42.43
2018-03-14T17:40:14.294Z,33.00
2018-03-14T17:42:42.163Z,32.60
2018-03-14T17:45:09.780Z,62.53
2018-03-14T17:47:37.750Z,43.67
2018-03-14T17:50:05.827Z,31.80
2018-03-14T17:52:34.033Z,29.30
2018-03-14T17:55:02.448Z,30.23
2018-03-14T17:57:30.376Z,30.80
2018-03-14T17:59:57.974Z,29.33
2018-03-14T18:02:25.800Z,26.07
2018-03-14T18:04:53.965Z,31.73
2018-03-14T18:07:21.912Z,30.97
2018-03-14T18:09:49.795Z,33.17
2018-03-14T18:12:17.574Z,44.23
2018-03-14T18:14:47.074Z,36.90
2018-03-14T18:17:15.066Z,29.83
2018-03-14T18:19:43.426Z,38.20
2018-03-14T18:22:11.699Z,28.23
2018-03-14T18:24:39.774Z,26.70
2018-03-14T18:27:08.247Z,31.80
2018-03-14T18:29:36.520Z,29.33
2018-03-14T18:32:05.003Z,21.20
2018-03-14T18:34:33.288Z,26.00
2018-03-14T18:37:01.006Z,27.83
2018-03-14T18:39:29.364Z,28.83
2018-03-14T18:41:57.293Z,29.30
2018-03-14T18:44:25.254Z,37.57
2018-03-14T18:46:53.290Z,41.17
2018-03-14T18:49:20.974Z,38.43
2018-03-14T18:51:49.151Z,39.17
2018-03-14T18:54:17.226Z,35.30
2018-03-14T18:56:45.501Z,40.77
2018-03-14T18:59:13.504Z,36.97
2018-03-14T19:01:41.879Z,37.33
2018-03-14T19:04:10.284Z,36.37
2018-03-14T19:06:38.349Z,32.23
2018-03-14T19:09:06.465Z,31.77
2018-03-14T19:11:35.764Z,34.70
2018-03-14T19:14:03.776Z,36.60
2018-03-14T19:16:31.520Z,30.00
2018-03-14T19:18:59.366Z,33.40
2018-03-14T19:21:27.840Z,33.43
2018-03-14T19:23:56.115Z,33.67
2018-03-14T19:26:24.158Z,38.33
2018-03-14T19:28:52.259Z,36.47
2018-03-14T19:31:20.132Z,42.63
2018-03-14T19:33:47.884Z,58.07
2018-03-14T19:36:15.870Z,43.77
2018-03-14T19:38:44.072Z,44.10
2018-03-14T19:41:12.219Z,95.60
2018-03-14T19:43:41.505Z,54.53
2018-03-14T19:46:11.048Z,57.87
2018-03-14T19:48:38.740Z,48.43
2018-03-14T19:51:06.324Z,55.33
2018-03-14T19:53:34.108Z,48.93
2018-03-14T19:56:01.953Z,50.20
2018-03-14T19:58:30.083Z,50.80
2018-03-14T20:00:57.915Z,53.10
2018-03-14T20:03:25.967Z,54.60
2018-03-14T20:05:55.570Z,52.13
2018-03-14T20:08:23.663Z,53.73
2018-03-14T20:10:51.298Z,56.43
2018-03-14T20:13:19.160Z,57.27
2018-03-14T20:15:47.500Z,57.37
2018-03-14T20:18:15.125Z,57.20
2018-03-14T20:20:42.971Z,68.57
2018-03-14T20:23:11.205Z,59.23
2018-03-14T20:25:39.428Z,59.63
2018-03-14T20:28:07.592Z,57.13
2018-03-14T20:30:35.658Z,55.00
2018-03-14T20:33:03.933Z,54.53
2018-03-14T20:35:32.209Z,55.80
2018-03-14T20:38:00.277Z,50.47
2018-03-14T20:40:28.080Z,48.60
2018-03-14T20:42:56.125Z,51.23
2018-03-14T20:45:24.525Z,48.67
2018-03-14T20:47:52.727Z,51.37
2018-03-14T20:50:21.101Z,49.17
2018-03-14T20:52:49.109Z,41.37
2018-03-14T20:55:16.974Z,41.47
2018-03-14T20:57:44.565Z,41.93
2018-03-14T21:00:12.387Z,53.40
2018-03-14T21:02:40.006Z,46.37
2018-03-14T21:05:07.630Z,59.20
2018-03-14T21:07:35.292Z,55.10
2018-03-14T21:10:03.144Z,53.67
2018-03-14T21:12:30.700Z,48.47
2018-03-14T21:14:58.360Z,53.33
2018-03-14T21:17:25.932Z,56.10
2018-03-14T21:19:53.512Z,56.17
2018-03-14T21:22:21.128Z,56.03
2018-03-14T21:24:48.902Z,58.77
2018-03-14T21:27:16.839Z,62.37
2018-03-14T21:29:45.287Z,67.77
2018-03-14T21:32:12.908Z,64.80
2018-03-14T21:34:40.489Z,74.87
2018-03-14T21:37:08.105Z,79.07
2018-03-14T21:39:36.068Z,84.33
2018-03-14T21:42:03.623Z,87.87
2018-03-14T21:44:32.271Z,80.93
2018-03-14T21:46:59.859Z,85.07
2018-03-14T21:49:27.643Z,98.43
2018-03-14T21:51:56.267Z,90.73
2018-03-14T21:54:23.856Z,87.23
2018-03-14T21:56:51.423Z,81.90
2018-03-14T21:59:19.916Z,56.40
2018-03-14T22:01:47.478Z,62.83
2018-03-14T22:04:15.041Z,75.37
2018-03-14T22:06:43.063Z,75.87
2018-03-14T22:09:10.911Z,54.87
2018-03-14T22:11:39.431Z,55.60
2018-03-14T22:14:07.828Z,45.07
2018-03-14T22:16:35.563Z,47.00
2018-03-14T22:19:03.106Z,41.27
2018-03-14T22:21:30.699Z,43.87
2018-03-14T22:23:59.094Z,43.57
2018-03-14T22:26:27.019Z,43.63
2018-03-14T22:28:54.842Z,44.20
2018-03-14T22:31:22.547Z,42.77
2018-03-14T22:33:50.885Z,41.40
2018-03-14T22:36:18.494Z,40.60
2018-03-14T22:38:46.812Z,50.70
2018-03-14T22:41:14.372Z,70.90
2018-03-14T22:43:41.971Z,88.47
2018-03-14T22:46:09.972Z,65.93
2018-03-14T22:48:37.531Z,64.43
2018-03-14T22:51:05.163Z,77.17
2018-03-14T22:53:32.719Z,79.93
2018-03-14T22:56:00.283Z,69.80
2018-03-14T22:58:28.637Z,64.20
2018-03-14T23:00:56.460Z,59.17
2018-03-14T23:03:24.123Z,56.10
2018-03-14T23:05:51.879Z,60.17
2018-03-14T23:08:19.683Z,55.30
2018-03-14T23:10:47.319Z,56.67
2018-03-14T23:13:15.226Z,53.90
2018-03-14T23:15:42.787Z,65.67
2018-03-14T23:18:10.703Z,60.07
2018-03-14T23:20:38.611Z,62.37
2018-03-14T23:23:06.190Z,66.10
2018-03-14T23:25:33.759Z,67.90
2018-03-14T23:28:02.214Z,67.87
2018-03-14T23:30:29.770Z,73.47
2018-03-14T23:32:57.478Z,70.23
2018-03-14T23:35:25.199Z,72.53
2018-03-14T23:37:52.866Z,69.57
2018-03-14T23:40:20.539Z,65.57
2018-03-14T23:42:48.903Z,65.27
2018-03-14T23:45:16.659Z,64.43
2018-03-14T23:47:44.337Z,65.27
2018-03-14T23:50:12.846Z,69.00
2018-03-14T23:52:40.621Z,69.10
2018-03-14T23:55:08.267Z,70.70
2018-03-14T23:57:36.157Z,65.40
